Time;durP1;ratioP1;P1;durP2;ratioP2;P2;SDS_P1;SDS_P2;PMS_P1;PMS_P2;Temp;Humidity;BMP_temperature;BMP_pressure;BME280_temperature;BME280_humidity;BME280_pressure;Samples;Min_cycle;Max_cycle;Signal;HPM_P1;HPM_P2
2023/04/17 00:01:28;;;;;;;7.68;3.22;;;;;;;11.82;68.16;98786.13;4968669;28;20026;-89
2023/04/17 00:03:56;;;;;;;4.65;3.10;;;;;;;11.95;67.61;98794.63;4966935;28;20045;-88
2023/04/17 00:06:22;;;;;;;8.07;3.25;;;;;;;11.82;68.12;98791.50;4968063;28;20121;-88
2023/04/17 00:08:48;;;;;;;3.88;2.75;;;;;;;11.65;68.34;98786.63;4969046;28;20044;-89
2023/04/17 00:11:14;;;;;;;6.70;3.40;;;;;;;11.69;68.39;98794.94;4968014;28;20134;-88
2023/04/17 00:13:39;;;;;;;4.57;2.85;;;;;;;11.71;68.76;98811.63;4968045;28;20029;-89
2023/04/17 00:16:06;;;;;;;8.60;3.58;;;;;;;11.63;68.81;98788.81;4967803;28;20037;-89
2023/04/17 00:18:31;;;;;;;6.60;3.08;;;;;;;11.64;68.26;98795.81;4968849;28;20029;-89
2023/04/17 00:20:56;;;;;;;8.82;3.75;;;;;;;11.55;68.45;98791.34;4968580;28;20041;-89
2023/04/17 00:23:22;;;;;;;9.32;3.50;;;;;;;11.72;68.02;98794.34;4968147;28;20472;-89
2023/04/17 00:25:47;;;;;;;7.28;3.33;;;;;;;11.64;68.09;98795.81;4968517;28;20034;-89
2023/04/17 00:28:13;;;;;;;6.25;3.55;;;;;;;11.48;68.72;98784.41;4968526;28;20042;-89
2023/04/17 00:30:38;;;;;;;7.47;3.83;;;;;;;11.64;68.40;98793.13;4967826;28;20042;-89
2023/04/17 00:33:04;;;;;;;6.45;3.60;;;;;;;11.80;67.74;98809.88;4967849;28;20037;-89
2023/04/17 00:35:29;;;;;;;6.95;3.88;;;;;;;11.60;68.38;98797.47;4966623;28;20034;-89
2023/04/17 00:37:56;;;;;;;7.28;3.47;;;;;;;11.64;68.28;98803.06;4966959;28;20101;-89
2023/04/17 00:40:21;;;;;;;7.18;3.63;;;;;;;11.72;67.88;98799.75;4967750;28;20122;-89
2023/04/17 00:42:51;;;;;;;8.48;4.18;;;;;;;11.76;68.37;98808.84;4967314;28;20424;-89
2023/04/17 00:45:19;;;;;;;6.90;3.70;;;;;;;11.65;68.24;98804.69;4984349;28;20408;-89
2023/04/17 00:47:44;;;;;;;9.00;4.00;;;;;;;11.74;67.75;98797.56;4967352;28;20496;-89
2023/04/17 00:50:11;;;;;;;8.32;4.07;;;;;;;11.63;68.34;98796.09;4968854;28;20048;-89
2023/04/17 00:52:36;;;;;;;8.90;4.30;;;;;;;11.65;68.15;98804.69;4968096;28;20038;-89
2023/04/17 00:55:02;;;;;;;7.32;3.65;;;;;;;11.60;68.33;98796.66;4967731;28;20034;-89
2023/04/17 00:57:27;;;;;;;12.95;4.82;;;;;;;11.61;68.38;98795.59;4966951;28;20034;-89
2023/04/17 00:59:54;;;;;;;9.50;4.25;;;;;;;11.61;68.28;98790.19;4966566;28;20033;-89
2023/04/17 01:02:19;;;;;;;8.35;4.18;;;;;;;11.58;68.29;98786.19;4967396;28;20488;-89
2023/04/17 01:04:45;;;;;;;9.25;4.60;;;;;;;11.51;68.75;98789.22;4967123;28;20041;-89
2023/04/17 01:07:10;;;;;;;7.45;4.07;;;;;;;11.50;68.92;98794.91;4983486;28;20038;-90
2023/04/17 01:09:36;;;;;;;8.57;3.88;;;;;;;11.32;69.21;98785.69;4967768;28;20041;-89
2023/04/17 01:12:18;;;;;;;6.90;4.20;;;;;;;11.32;69.22;98783.78;4966797;28;20508;-89
2023/04/17 01:14:43;;;;;;;7.18;4.13;;;;;;;11.30;70.00;98795.94;4967909;28;20034;-89
2023/04/17 01:17:13;;;;;;;6.15;3.72;;;;;;;11.28;69.41;98785.44;4965701;28;20042;-89
2023/04/17 01:19:39;;;;;;;7.40;4.38;;;;;;;11.19;69.64;98776.41;4968612;28;20132;-89
2023/04/17 01:22:05;;;;;;;9.93;5.00;;;;;;;11.15;69.94;98777.28;4967077;28;20037;-89
2023/04/17 01:24:30;;;;;;;10.32;4.35;;;;;;;11.31;69.27;98787.59;4967230;28;20427;-89
2023/04/17 01:26:55;;;;;;;9.55;3.80;;;;;;;11.39;69.03;98775.34;4982588;28;20057;-89
2023/04/17 01:29:21;;;;;;;10.52;4.40;;;;;;;11.45;68.98;98778.78;4966847;28;20037;-89
2023/04/17 01:31:47;;;;;;;7.10;4.25;;;;;;;11.38;69.29;98779.16;4982591;28;20129;-88
2023/04/17 01:34:12;;;;;;;9.60;4.00;;;;;;;11.26;69.58;98786.84;4982871;28;20038;-88
2023/04/17 01:36:37;;;;;;;10.68;5.05;;;;;;;11.13;70.11;98793.72;4966861;28;20038;-89
2023/04/17 01:39:03;;;;;;;9.30;3.95;;;;;;;11.10;70.00;98788.88;4966516;28;20389;-89
2023/04/17 01:41:28;;;;;;;6.97;3.72;;;;;;;11.04;70.13;98788.16;4966388;28;20038;-89
2023/04/17 01:43:54;;;;;;;9.60;4.03;;;;;;;11.06;70.16;98777.91;4966451;28;20045;-89
2023/04/17 01:46:19;;;;;;;6.93;3.25;;;;;;;11.09;70.66;98788.09;4965850;28;20408;-89
2023/04/17 01:48:45;;;;;;;8.65;4.05;;;;;;;11.16;70.35;98778.88;4966449;28;20488;-89
2023/04/17 01:51:10;;;;;;;5.00;3.63;;;;;;;11.07;70.24;98765.22;4966475;28;20480;-89
2023/04/17 01:53:37;;;;;;;9.45;6.20;;;;;;;11.10;70.36;98772.72;4966279;28;20103;-89
2023/04/17 01:56:03;;;;;;;8.32;3.65;;;;;;;10.84;70.77;98750.66;4966205;28;20040;-89
2023/04/17 01:58:28;;;;;;;5.95;3.22;;;;;;;10.92;70.72;98760.81;4966803;28;20116;-87
2023/04/17 02:00:54;;;;;;;6.18;3.80;;;;;;;10.95;70.52;98760.22;4966687;28;20443;-89
2023/04/17 02:03:20;;;;;;;6.00;3.55;;;;;;;10.90;71.01;98771.06;4966359;28;20041;-90
2023/04/17 02:05:46;;;;;;;5.70;3.42;;;;;;;10.90;70.84;98760.28;4981148;28;20038;-88
2023/04/17 02:08:12;;;;;;;5.20;3.47;;;;;;;10.93;70.68;98767.78;4966486;28;20041;-88
2023/04/17 02:10:37;;;;;;;5.75;3.60;;;;;;;10.85;71.10;98774.63;4966384;28;20050;-87
2023/04/17 02:13:03;;;;;;;6.38;3.67;;;;;;;10.76;71.45;98779.00;4965891;28;20116;-88
2023/04/17 02:15:28;;;;;;;5.35;3.33;;;;;;;10.78;71.28;98782.22;4965987;28;20507;-88
2023/04/17 02:17:54;;;;;;;5.78;3.47;;;;;;;10.63;71.40;98775.09;4966397;28;20037;-89
2023/04/17 02:20:19;;;;;;;6.40;4.13;;;;;;;10.65;71.73;98790.97;4966957;28;20040;-88
2023/04/17 02:22:45;;;;;;;4.70;3.15;;;;;;;10.75;71.14;98780.09;4965334;28;20034;-87
2023/04/17 02:25:10;;;;;;;6.72;3.58;;;;;;;10.89;70.89;98783.75;4965960;28;20419;-88
2023/04/17 02:27:36;;;;;;;4.40;3.00;;;;;;;10.94;70.57;98779.38;4966484;28;20103;-87
2023/04/17 02:30:02;;;;;;;7.53;3.50;;;;;;;11.04;70.48;98776.56;4966212;28;20060;-87
2023/04/17 02:32:28;;;;;;;5.18;3.55;;;;;;;11.11;69.99;98787.81;4966301;28;20034;-87
2023/04/17 02:34:53;;;;;;;11.88;3.72;;;;;;;11.08;69.33;98773.03;4965053;28;20022;-88
2023/04/17 02:37:19;;;;;;;4.60;2.75;;;;;;;11.10;68.95;98772.72;4981914;28;20041;-87
2023/04/17 02:39:46;;;;;;;8.77;3.13;;;;;;;11.08;68.81;98767.63;4965073;28;20471;-89
2023/04/17 02:42:11;;;;;;;4.45;2.65;;;;;;;11.15;68.85;98764.59;4970766;28;20168;-87
2023/04/17 02:44:38;;;;;;;4.00;2.80;;;;;;;11.18;68.15;98752.44;4982104;28;20038;-87
2023/04/17 02:47:04;;;;;;;8.48;3.40;;;;;;;11.27;68.64;98761.50;4982255;28;20041;-87
2023/04/17 02:49:30;;;;;;;4.28;2.92;;;;;;;11.17;70.37;98764.31;4981741;28;20025;-88
2023/04/17 02:51:55;;;;;;;8.70;3.40;;;;;;;10.96;70.26;98752.94;4981507;28;20046;-88
2023/04/17 02:54:21;;;;;;;5.45;3.15;;;;;;;10.97;70.17;98759.94;4981123;28;20495;-88
2023/04/17 02:56:46;;;;;;;8.55;3.40;;;;;;;10.90;70.17;98741.44;4982029;28;20125;-87
2023/04/17 02:59:12;;;;;;;5.43;3.13;;;;;;;11.01;70.35;98747.50;4982836;28;20037;-88
2023/04/17 03:01:39;;;;;;;6.00;3.20;;;;;;;10.90;70.22;98733.34;4985188;28;20117;-88
2023/04/17 03:04:05;;;;;;;5.05;2.72;;;;;;;10.80;70.66;98749.63;4985299;28;20128;-88
2023/04/17 03:06:31;;;;;;;5.07;3.03;;;;;;;10.70;70.97;98739.75;5002358;28;20058;-88
2023/04/17 03:08:56;;;;;;;8.63;3.10;;;;;;;10.67;70.46;98738.44;4985686;28;20038;-88
2023/04/17 03:11:22;;;;;;;5.95;3.47;;;;;;;10.68;70.53;98750.00;4984343;28;20488;-88
2023/04/17 03:13:47;;;;;;;5.25;2.83;;;;;;;10.68;70.79;98747.31;4985326;28;20507;-88
2023/04/17 03:16:13;;;;;;;5.93;3.22;;;;;;;10.62;71.33;98740.38;4985478;28;20030;-88
2023/04/17 03:18:39;;;;;;;5.03;3.00;;;;;;;10.70;70.48;98731.66;4985837;28;20038;-88
2023/04/17 03:21:05;;;;;;;5.22;3.45;;;;;;;10.78;70.25;98727.56;4985670;28;20116;-88
2023/04/17 03:23:30;;;;;;;6.05;2.88;;;;;;;10.79;70.44;98726.47;4985587;28;20131;-87
2023/04/17 03:25:56;;;;;;;5.85;3.20;;;;;;;10.60;71.01;98737.16;4984230;28;20038;-88
2023/04/17 03:28:22;;;;;;;7.25;3.35;;;;;;;10.58;71.45;98758.16;4984704;28;20052;-88
2023/04/17 03:30:48;;;;;;;6.13;3.35;;;;;;;10.52;71.32;98741.25;4984811;28;20030;-88
2023/04/17 03:33:15;;;;;;;8.60;3.05;;;;;;;10.73;70.72;98744.56;4985211;28;20041;-88
2023/04/17 03:35:41;;;;;;;9.35;3.90;;;;;;;10.92;69.99;98761.59;4984976;28;20038;-88
2023/04/17 03:38:07;;;;;;;5.70;3.10;;;;;;;11.00;69.78;98764.75;4984803;28;20484;-88
2023/04/17 03:40:33;;;;;;;5.20;2.97;;;;;;;11.03;69.57;98769.56;4985073;28;20034;-88
2023/04/17 03:42:58;;;;;;;13.98;5.43;;;;;;;11.12;69.53;98792.91;4984169;28;20076;-89
2023/04/17 03:45:24;;;;;;;7.25;4.53;;;;;;;10.91;70.34;98791.50;4984734;28;20042;-88
2023/04/17 03:47:49;;;;;;;9.98;5.15;;;;;;;11.05;69.94;98802.44;4984640;28;20038;-88
2023/04/17 03:50:15;;;;;;;14.82;5.47;;;;;;;11.13;69.85;98815.28;4984225;28;20045;-88
2023/04/17 03:52:42;;;;;;;12.02;5.93;;;;;;;11.10;69.20;98821.22;4984512;28;20133;-88
2023/04/17 03:55:08;;;;;;;10.63;6.43;;;;;;;11.15;69.55;98848.13;4984956;28;20139;-88
2023/04/17 03:57:33;;;;;;;15.20;6.90;;;;;;;10.98;69.87;98823.50;5001319;28;20037;-89
2023/04/17 03:59:59;;;;;;;14.25;6.80;;;;;;;10.97;70.48;98817.31;4983423;28;20034;-89
2023/04/17 04:02:24;;;;;;;10.65;5.65;;;;;;;10.98;71.05;98783.91;4984342;28;20484;-89
2023/04/17 04:04:50;;;;;;;12.55;5.53;;;;;;;11.20;71.29;98802.25;4984263;28;20038;-89
2023/04/17 04:07:15;;;;;;;9.02;5.15;;;;;;;11.30;72.65;98817.50;4984669;28;20033;-89
2023/04/17 04:09:41;;;;;;;14.30;5.95;;;;;;;11.30;74.03;98820.19;4984069;28;20018;-89
2023/04/17 04:12:07;;;;;;;9.38;5.57;;;;;;;11.33;74.36;98833.13;4984580;28;20061;-89
2023/04/17 04:14:33;;;;;;;11.27;4.93;;;;;;;11.38;75.17;98845.75;4983085;28;20030;-88
2023/04/17 04:16:58;;;;;;;6.82;4.55;;;;;;;11.31;74.70;98830.72;4984269;28;20040;-89
2023/04/17 04:19:24;;;;;;;7.93;4.80;;;;;;;11.43;73.18;98816.00;4967700;28;20037;-89
2023/04/17 04:21:49;;;;;;;10.45;4.80;;;;;;;11.44;73.82;98834.59;4969118;28;20084;-95
2023/04/17 04:24:15;;;;;;;7.38;4.63;;;;;;;11.37;74.45;98828.75;4970266;28;20488;-95
2023/04/17 04:26:41;;;;;;;8.85;4.95;;;;;;;11.41;75.48;98818.19;4969833;28;20052;-95
2023/04/17 04:29:07;;;;;;;9.15;4.80;;;;;;;11.39;75.86;98829.25;4969407;28;20065;-94
2023/04/17 04:31:34;;;;;;;7.70;4.72;;;;;;;11.43;75.42;98826.78;4970382;28;20500;-94
2023/04/17 04:34:00;;;;;;;11.02;4.43;;;;;;;11.40;76.80;98833.56;4969823;28;20029;-94
2023/04/17 04:36:28;;;;;;;11.27;5.00;;;;;;;11.46;75.99;98821.63;4969561;28;20519;-94
2023/04/17 04:38:58;;;;;;;8.13;4.50;;;;;;;11.56;75.75;98841.47;4969078;28;20080;-94
2023/04/17 04:41:24;;;;;;;9.13;5.00;;;;;;;11.33;77.43;98839.31;4986800;28;20025;-94
2023/04/17 04:43:50;;;;;;;9.77;5.10;;;;;;;11.36;77.18;98843.31;4970802;28;20519;-94
2023/04/17 04:46:15;;;;;;;8.02;4.55;;;;;;;11.45;76.67;98835.41;4968345;28;20045;-95
2023/04/17 04:48:41;;;;;;;6.15;4.60;;;;;;;11.47;77.50;98852.09;4969933;28;20038;-95
2023/04/17 04:51:06;;;;;;;9.50;4.85;;;;;;;11.44;77.51;98844.59;4970192;28;20034;-95
2023/04/17 04:53:32;;;;;;;9.52;4.28;;;;;;;11.45;76.55;98863.16;4970909;28;20038;-94
2023/04/17 04:56:02;;;;;;;5.10;3.80;;;;;;;11.21;77.52;98856.97;4986386;28;20021;-95
2023/04/17 04:58:28;;;;;;;9.35;5.22;;;;;;;11.08;77.49;98861.94;5001871;28;20037;-92
2023/04/17 05:00:55;;;;;;;8.57;5.35;;;;;;;11.10;78.24;98858.94;4975323;28;20022;-94
2023/04/17 05:03:22;;;;;;;14.05;5.53;;;;;;;11.04;78.22;98866.28;4985957;28;20468;-94
2023/04/17 05:05:49;;;;;;;9.77;5.78;;;;;;;10.87;78.43;98825.47;4984649;28;20044;-95
2023/04/17 05:08:15;;;;;;;12.20;6.25;;;;;;;11.09;77.88;98831.19;4970019;28;20034;-94
2023/04/17 05:10:40;;;;;;;8.93;6.18;;;;;;;11.10;78.29;98832.81;4984234;28;20045;-95
2023/04/17 05:13:06;;;;;;;16.00;8.23;;;;;;;11.06;79.22;98825.56;4967761;28;20029;-96
2023/04/17 05:15:31;;;;;;;16.30;7.72;;;;;;;11.10;79.69;98811.25;4968354;28;20041;-96
2023/04/17 05:17:57;;;;;;;11.77;7.80;;;;;;;11.17;79.83;98807.44;4970434;28;20029;-95
2023/04/17 05:20:22;;;;;;;13.13;6.88;;;;;;;11.09;80.25;98820.41;4969833;28;20096;-95
2023/04/17 05:22:48;;;;;;;10.90;6.88;;;;;;;11.12;80.40;98822.56;4968834;28;20053;-95
2023/04/17 05:25:15;;;;;;;9.77;6.03;;;;;;;11.17;80.11;98824.38;4968437;28;20034;-95
2023/04/17 05:27:40;;;;;;;10.88;6.18;;;;;;;11.19;79.32;98822.22;4969183;28;20049;-94
2023/04/17 05:30:06;;;;;;;8.63;6.05;;;;;;;11.25;79.27;98844.53;4968808;28;20508;-94
2023/04/17 05:32:33;;;;;;;13.20;5.63;;;;;;;11.12;79.11;98836.03;4969421;28;20061;-94
2023/04/17 05:34:59;;;;;;;8.88;5.38;;;;;;;11.32;79.18;98844.97;4969036;28;20045;-95
2023/04/17 05:37:25;;;;;;;8.35;4.80;;;;;;;11.36;78.17;98834.44;4986326;28;20030;-95
2023/04/17 05:39:50;;;;;;;11.80;5.40;;;;;;;11.22;80.20;98843.19;4968689;28;20033;-94
2023/04/17 05:42:16;;;;;;;8.20;5.15;;;;;;;11.27;79.92;98858.53;4969300;28;20126;-95
2023/04/17 05:44:42;;;;;;;8.02;5.20;;;;;;;11.54;78.95;98879.53;4968056;28;20068;-95
2023/04/17 05:47:07;;;;;;;9.13;5.53;;;;;;;11.46;80.01;98872.84;4967668;28;20038;-95
2023/04/17 05:49:33;;;;;;;9.20;5.30;;;;;;;11.53;79.34;98883.28;4969162;28;20034;-95
2023/04/17 05:51:58;;;;;;;9.70;4.72;;;;;;;11.43;79.29;98862.63;4974329;28;20503;-94
2023/04/17 05:54:24;;;;;;;8.43;5.47;;;;;;;11.53;80.21;98875.22;4968876;28;20042;-95
2023/04/17 05:56:50;;;;;;;9.88;5.95;;;;;;;11.56;79.15;98871.94;4968839;28;20416;-95
2023/04/17 05:59:16;;;;;;;7.50;5.00;;;;;;;11.64;79.86;98867.78;4968966;28;20036;-94
2023/04/17 06:01:45;;;;;;;8.38;5.00;;;;;;;11.60;80.29;98872.97;4972801;28;20022;-94
2023/04/17 06:04:10;;;;;;;10.25;5.05;;;;;;;11.72;80.92;98870.69;4988587;28;20161;-96
2023/04/17 06:06:36;;;;;;;9.35;5.00;;;;;;;11.77;80.32;98875.22;4967936;28;20129;-92
2023/04/17 06:09:03;;;;;;;9.57;5.63;;;;;;;11.65;80.73;98866.72;4968080;28;20041;-94
2023/04/17 06:11:28;;;;;;;6.72;4.55;;;;;;;11.86;80.34;98868.06;4967040;28;20034;-94
2023/04/17 06:13:54;;;;;;;7.65;5.03;;;;;;;11.98;80.28;98865.00;4967006;28;20041;-95
2023/04/17 06:16:19;;;;;;;6.50;5.18;;;;;;;12.18;80.34;98880.13;4967305;28;20034;-95
2023/04/17 06:18:45;;;;;;;9.50;5.63;;;;;;;12.26;78.83;98857.84;4968533;28;20034;-94
2023/04/17 06:21:10;;;;;;;10.13;5.63;;;;;;;12.44;78.42;98875.13;4968107;28;20030;-95
2023/04/17 06:23:37;;;;;;;7.05;4.63;;;;;;;12.43;77.86;98864.63;4975757;28;20033;-93
2023/04/17 06:26:03;;;;;;;7.70;4.72;;;;;;;12.63;77.39;98877.81;4985006;28;20038;-95
2023/04/17 06:28:28;;;;;;;9.70;4.80;;;;;;;12.49;77.27;98879.66;4970738;28;20417;-94
2023/04/17 06:30:54;;;;;;;7.05;5.00;;;;;;;12.26;76.86;98857.84;4985984;28;20050;-95
2023/04/17 06:33:19;;;;;;;8.63;4.80;;;;;;;12.43;78.10;98878.94;4970198;28;20038;-94
2023/04/17 06:35:45;;;;;;;7.22;4.93;;;;;;;12.58;78.27;98888.72;4974550;28;20543;-96
2023/04/17 06:38:10;;;;;;;7.68;4.80;;;;;;;12.76;78.32;98897.06;4975533;28;20038;-94
2023/04/17 06:40:36;;;;;;;6.78;4.97;;;;;;;12.81;77.33;98873.50;4972758;28;20022;-94
2023/04/17 06:43:01;;;;;;;6.15;4.53;;;;;;;13.03;76.44;98878.25;4971157;28;20026;-93
2023/04/17 06:45:27;;;;;;;6.38;4.40;;;;;;;13.24;75.30;98905.75;4970502;28;20042;-95
2023/04/17 06:47:53;;;;;;;6.95;4.78;;;;;;;13.27;74.84;98890.81;4972140;28;20042;-94
2023/04/17 06:50:19;;;;;;;7.45;4.25;;;;;;;13.37;74.39;98895.28;4972237;28;20136;-94
2023/04/17 06:52:45;;;;;;;7.22;4.20;;;;;;;13.41;74.16;98902.50;4971676;28;20068;-95
2023/04/17 06:55:10;;;;;;;7.78;4.82;;;;;;;13.20;75.16;98893.91;4970725;28;20040;-95
2023/04/17 06:57:37;;;;;;;7.35;4.97;;;;;;;13.19;74.11;98896.91;4973636;28;20034;-94
2023/04/17 07:00:03;;;;;;;9.02;5.30;;;;;;;13.27;74.64;98907.03;4974385;28;20160;-94
2023/04/17 07:05:50;;;;;;;6.90;4.13;;;;;;;13.50;73.35;98899.88;5020980;28;20064;-94
2023/04/17 07:08:17;;;;;;;6.30;4.45;;;;;;;13.78;73.32;98916.94;4972002;28;20767;-95
2023/04/17 07:10:42;;;;;;;6.93;4.35;;;;;;;13.99;74.35;98930.06;4971818;28;20038;-94
2023/04/17 07:13:09;;;;;;;5.65;4.57;;;;;;;14.14;71.51;98932.47;4971985;28;20546;-95
2023/04/17 07:15:35;;;;;;;6.18;4.70;;;;;;;14.30;70.87;98949.19;4971010;28;20038;-95
2023/04/17 07:18:00;;;;;;;8.95;4.72;;;;;;;14.18;70.47;98927.25;4988410;28;20102;-96
2023/04/17 07:20:26;;;;;;;13.55;8.60;;;;;;;14.41;70.78;98930.81;4971744;28;20045;-94
2023/04/17 07:22:51;;;;;;;11.32;6.10;;;;;;;14.58;70.77;98952.66;4971511;28;20024;-95
2023/04/17 07:25:19;;;;;;;65.45;33.80;;;;;;;14.57;69.63;98920.44;4971759;28;20038;-94
2023/04/17 07:27:45;;;;;;;11.50;4.80;;;;;;;14.52;68.84;98932.16;4987147;28;20045;-94
2023/04/17 07:30:11;;;;;;;6.82;4.97;;;;;;;14.61;70.13;98924.97;4972999;28;20046;-94
2023/04/17 07:32:37;;;;;;;7.15;5.32;;;;;;;14.68;70.35;98938.09;4971451;28;20041;-96
2023/04/17 07:35:03;;;;;;;10.43;7.40;;;;;;;14.86;68.37;98944.47;4969951;28;20034;-95
2023/04/17 07:37:31;;;;;;;12.63;7.57;;;;;;;14.73;71.25;98943.38;4971412;28;20036;-95
2023/04/17 07:39:57;;;;;;;9.10;4.97;;;;;;;14.57;71.27;98931.28;4970544;28;20037;-94
2023/04/17 07:42:22;;;;;;;8.23;5.18;;;;;;;14.65;70.90;98949.53;4971550;28;20038;-95
2023/04/17 07:44:48;;;;;;;7.97;4.85;;;;;;;14.59;69.10;98948.84;4969689;28;20037;-94
2023/04/17 07:47:19;;;;;;;8.55;4.65;;;;;;;14.47;68.56;98914.13;4970133;28;20457;-94
2023/04/17 07:49:55;;;;;;;6.75;4.75;;;;;;;14.56;69.34;98922.34;4984394;28;20032;-89
2023/04/17 07:52:20;;;;;;;10.23;5.18;;;;;;;14.84;69.10;98933.91;4987689;28;20411;-89
2023/04/17 07:54:46;;;;;;;9.23;5.15;;;;;;;14.88;70.31;98940.31;4967738;28;20057;-89
2023/04/17 07:57:13;;;;;;;11.95;6.00;;;;;;;15.05;70.92;98942.34;4970048;28;20392;-94
2023/04/17 07:59:38;;;;;;;8.93;5.15;;;;;;;15.21;69.55;98928.41;4970977;28;20124;-93
2023/04/17 08:02:04;;;;;;;7.32;5.28;;;;;;;15.17;68.68;98909.25;4971423;28;20472;-94
2023/04/17 08:04:30;;;;;;;7.88;5.63;;;;;;;15.25;69.01;98929.38;4970384;28;20087;-94
2023/04/17 08:06:55;;;;;;;8.43;5.57;;;;;;;15.14;70.09;98939.69;4970270;28;20026;-94
2023/04/17 08:09:21;;;;;;;10.10;5.70;;;;;;;14.95;69.44;98929.03;4969345;28;20037;-96
2023/04/17 08:11:47;;;;;;;7.05;4.82;;;;;;;15.08;67.71;98958.00;4977032;28;20045;-94
2023/04/17 08:14:14;;;;;;;7.47;5.00;;;;;;;15.03;67.48;98949.19;5005882;28;20042;-95
2023/04/17 08:16:40;;;;;;;8.68;5.07;;;;;;;14.93;68.75;98951.03;4969394;28;20046;-94
2023/04/17 08:19:08;;;;;;;9.27;5.28;;;;;;;14.96;68.48;98949.59;4971563;28;20044;-95
2023/04/17 08:21:33;;;;;;;7.97;4.53;;;;;;;14.93;68.22;98948.31;4973302;28;20025;-94
2023/04/17 08:23:59;;;;;;;8.45;5.18;;;;;;;15.06;67.11;98945.84;4994490;28;20033;-95
2023/04/17 08:26:25;;;;;;;7.22;4.60;;;;;;;15.08;67.42;98941.72;4971397;28;20034;-95
2023/04/17 08:28:52;;;;;;;9.75;5.90;;;;;;;15.02;68.07;98937.53;4950250;28;20532;-94
2023/04/17 08:31:18;;;;;;;7.43;5.05;;;;;;;15.10;67.24;98923.22;4948045;28;20042;-95
2023/04/17 08:33:43;;;;;;;7.47;4.88;;;;;;;15.13;66.92;98903.66;4962985;28;20046;-95
2023/04/17 08:36:09;;;;;;;6.10;4.68;;;;;;;15.48;66.14;98941.00;4963001;28;20057;-94
2023/04/17 08:38:35;;;;;;;11.48;5.20;;;;;;;15.42;67.52;98940.34;4947471;28;20042;-94
2023/04/17 08:41:06;;;;;;;7.72;4.30;;;;;;;15.43;66.66;98935.72;4961946;28;20034;-92
2023/04/17 08:43:32;;;;;;;;;;;;;;;15.75;65.69;98940.84;4964009;28;20478;-93
2023/04/17 08:45:58;;;;;;;8.27;4.97;;;;;;;15.95;65.12;98931.31;4981221;28;19910;-96
2023/04/17 08:48:23;;;;;;;10.15;4.40;;;;;;;16.08;64.80;98936.97;4973929;28;20386;-96
2023/04/17 08:50:51;;;;;;;7.22;4.70;;;;;;;15.66;64.34;98920.19;4968545;28;20058;-95
2023/04/17 08:53:17;;;;;;;7.32;4.68;;;;;;;15.58;64.81;98900.03;4947897;28;20042;-93
2023/04/17 08:55:43;;;;;;;7.70;4.88;;;;;;;15.83;63.55;98917.56;4963104;28;20109;-94
2023/04/17 08:58:09;;;;;;;7.10;4.55;;;;;;;15.62;65.44;98940.91;4945916;28;20043;-95
2023/04/17 09:00:36;;;;;;;8.50;5.53;;;;;;;15.52;65.18;98922.97;4946213;28;20117;-94
2023/04/17 09:03:07;;;;;;;9.20;5.03;;;;;;;15.22;65.81;98922.69;4961929;28;20089;-93
2023/04/17 09:05:32;;;;;;;10.10;5.30;;;;;;;15.27;66.03;98932.59;4964514;28;20065;-94
2023/04/17 09:08:12;;;;;;;6.53;4.32;;;;;;;15.22;66.50;98943.59;4948009;28;20030;-96
2023/04/17 09:10:44;;;;;;;7.63;5.03;;;;;;;15.39;64.63;98919.25;4964401;28;20035;-95
2023/04/17 09:13:14;;;;;;;6.40;4.22;;;;;;;15.39;65.04;98940.16;4948575;28;20137;-94
2023/04/17 09:15:40;;;;;;;7.95;4.57;;;;;;;15.22;65.34;98928.09;4965285;28;20041;-94
2023/04/17 09:18:20;;;;;;;7.55;4.65;;;;;;;14.94;66.45;98922.84;4947627;28;20497;-93
2023/04/17 09:20:50;;;;;;;7.78;5.00;;;;;;;14.77;67.07;98927.31;4964314;28;20031;-94
2023/04/17 09:23:15;;;;;;;6.35;4.68;;;;;;;14.79;67.39;98920.47;4947387;28;20038;-96
2023/04/17 09:25:41;;;;;;;8.32;5.80;;;;;;;14.72;68.37;98937.16;4962704;28;20039;-94
2023/04/17 09:28:11;;;;;;;8.43;6.22;;;;;;;14.62;68.19;98931.19;4964326;28;20057;-94
2023/04/17 09:30:38;;;;;;;8.52;5.05;;;;;;;14.77;68.71;98946.28;4963550;28;20564;-96
2023/04/17 09:33:04;;;;;;;10.05;5.63;;;;;;;14.51;68.97;98911.63;4948884;28;20062;-96
2023/04/17 09:35:30;;;;;;;9.75;5.72;;;;;;;14.60;69.16;98919.84;4963385;28;20043;-94
2023/04/17 09:37:58;;;;;;;7.65;5.30;;;;;;;14.76;69.94;98942.78;4962283;28;20039;-90
2023/04/17 09:40:24;;;;;;;7.68;5.38;;;;;;;14.75;70.32;98942.00;4962999;28;20041;-95
2023/04/17 09:43:05;;;;;;;6.80;5.07;;;;;;;14.68;68.96;98919.91;4963877;28;20038;-95
2023/04/17 09:45:40;;;;;;;8.23;5.28;;;;;;;14.65;69.28;98925.97;4949933;28;20103;-95
2023/04/17 09:48:11;;;;;;;7.30;5.10;;;;;;;14.80;69.42;98937.56;4965633;28;20122;-93
2023/04/17 09:50:37;;;;;;;8.82;5.43;;;;;;;14.88;68.46;98929.47;4946564;28;20425;-94
2023/04/17 09:53:03;;;;;;;6.95;4.80;;;;;;;14.96;68.40;98930.63;4945217;28;20049;-94
2023/04/17 09:55:30;;;;;;;6.25;4.90;;;;;;;15.19;68.07;98938.75;4962812;28;20035;-95
2023/04/17 09:57:56;;;;;;;8.50;4.70;;;;;;;15.24;67.08;98930.50;4945763;28;20129;-93
2023/04/17 10:00:25;;;;;;;8.88;4.85;;;;;;;15.17;67.25;98922.81;4962130;28;20035;-94
2023/04/17 10:02:51;;;;;;;8.20;4.95;;;;;;;15.34;67.24;98941.09;4961518;28;20045;-95
2023/04/17 10:05:20;;;;;;;6.82;4.50;;;;;;;15.21;68.20;98931.13;4945530;28;20481;-94
2023/04/17 10:07:49;;;;;;;8.35;4.68;;;;;;;15.25;67.37;98913.13;4962160;28;20475;-95
2023/04/17 10:10:25;;;;;;;6.28;4.60;;;;;;;15.09;68.18;98921.66;4965062;28;20047;-96
2023/04/17 10:12:53;;;;;;;7.15;4.60;;;;;;;15.01;68.79;98937.88;4964756;28;20034;-95
2023/04/17 10:15:19;;;;;;;6.55;5.20;;;;;;;15.05;69.44;98928.00;4965871;28;20385;-94
2023/04/17 10:17:45;;;;;;;8.65;5.60;;;;;;;15.14;70.47;98935.06;4965838;28;20031;-96
2023/04/17 10:20:16;;;;;;;7.35;4.65;;;;;;;15.24;69.34;98954.94;4964684;28;20023;-95
2023/04/17 10:22:48;;;;;;;6.63;4.65;;;;;;;15.07;69.65;98940.13;4997788;28;20027;-95
2023/04/17 10:25:13;;;;;;;6.20;4.15;;;;;;;15.06;69.21;98948.56;4966448;28;20035;-93
2023/04/17 10:27:41;;;;;;;5.40;3.95;;;;;;;14.92;69.28;98957.56;5002090;28;20559;-96
2023/04/17 10:30:13;;;;;;;5.35;3.60;;;;;;;14.63;69.60;98920.03;5023810;28;20041;-96
2023/04/17 10:32:46;;;;;;;6.53;4.25;;;;;;;14.37;70.23;98917.06;4997831;28;20060;-94
2023/04/17 10:35:14;;;;;;;4.68;3.20;;;;;;;14.70;68.84;98954.84;4988361;28;20042;-95
2023/04/17 10:37:46;;;;;;;7.10;4.00;;;;;;;14.66;70.79;98960.06;5019807;28;20038;-95
2023/04/17 10:40:13;;;;;;;;;;;;;;;14.64;70.86;98956.06;5020812;28;20407;-96
2023/04/17 10:42:39;;;;;;;7.10;3.78;;;;;;;14.58;71.74;98951.88;5004210;28;19967;-94
2023/04/17 10:45:17;;;;;;;5.32;3.63;;;;;;;14.47;71.24;98932.31;4972053;28;20073;-94
2023/04/17 10:47:44;;;;;;;5.55;3.42;;;;;;;14.46;71.33;98946.94;4972326;28;20068;-95
2023/04/17 10:50:09;;;;;;;4.93;3.25;;;;;;;14.39;72.40;98943.84;4971222;28;20034;-94
2023/04/17 10:52:39;;;;;;;7.63;3.83;;;;;;;14.44;72.64;98958.06;4970201;28;20038;-95
2023/04/17 10:55:06;;;;;;;6.13;3.78;;;;;;;14.41;71.85;98944.34;4971558;28;20030;-95
2023/04/17 10:58:11;;;;;;;5.38;3.78;;;;;;;14.40;72.91;98942.72;4988962;28;20504;-95
2023/04/17 11:00:48;;;;;;;5.90;3.50;;;;;;;14.38;73.65;98934.13;4906330;29;20033;-96
2023/04/17 11:03:14;;;;;;;4.78;3.40;;;;;;;14.38;73.41;98924.09;4906868;29;20040;-95
2023/04/17 11:05:43;;;;;;;5.00;3.20;;;;;;;14.63;73.21;98946.31;4952614;28;20045;-95
2023/04/17 11:08:09;;;;;;;5.07;3.58;;;;;;;14.52;73.85;98932.16;4971528;28;20115;-95
2023/04/17 11:10:36;;;;;;;3.58;2.65;;;;;;;14.41;72.20;98917.25;4971050;28;20042;-95
2023/04/17 11:13:01;;;;;;;8.52;2.95;;;;;;;14.29;72.43;98939.44;4971394;28;20041;-95
2023/04/17 11:15:28;;;;;;;4.88;2.45;;;;;;;13.99;72.29;98903.81;4970486;28;20124;-95
2023/04/17 11:17:53;;;;;;;4.75;2.40;;;;;;;14.09;72.41;98925.25;4969870;28;20484;-93
2023/04/17 11:20:20;;;;;;;3.58;2.28;;;;;;;14.15;71.68;98906.97;4969935;28;20105;-94
2023/04/17 11:22:46;;;;;;;4.50;2.80;;;;;;;14.28;72.83;98925.13;4972461;28;20026;-94
2023/04/17 11:25:25;;;;;;;4.22;3.03;;;;;;;14.25;71.36;98911.38;4970861;28;20034;-93
2023/04/17 11:27:56;;;;;;;3.60;2.58;;;;;;;14.39;72.85;98928.41;4971171;28;20057;-94
2023/04/17 11:30:26;;;;;;;5.85;3.00;;;;;;;14.43;70.02;98898.81;4986440;28;20022;-94
2023/04/17 11:32:52;;;;;;;4.63;2.80;;;;;;;14.62;73.16;98910.28;4971857;28;20404;-94